sensor_id;sensor_type;location;lat;lon;timestamp;pressure;altitude;pressure_sealevel;temperature;humidity
45071;BME280;30836;48.906;9.140;2024-01-11T00:00:06;996.02;;;5.53;38.99
45071;BME280;30836;48.906;9.140;2024-01-11T00:01:10;996.02;;;5.54;39.01
45071;BME280;30836;48.906;9.140;2024-01-11T00:02:10;996.00;;;5.54;39.07
45071;BME280;30836;48.906;9.140;2024-01-11T00:03:11;996.00;;;5.55;39.09
45071;BME280;30836;48.906;9.140;2024-01-11T00:04:11;996.00;;;5.56;39.06
45071;BME280;30836;48.906;9.140;2024-01-11T00:05:12;996.02;;;5.57;38.98
45071;BME280;30836;48.906;9.140;2024-01-11T00:06:12;996.02;;;5.58;38.93
45071;BME280;30836;48.906;9.140;2024-01-11T00:07:13;996.00;;;5.60;38.95
45071;BME280;30836;48.906;9.140;2024-01-11T00:08:13;995.98;;;5.61;38.90
45071;BME280;30836;48.906;9.140;2024-01-11T00:09:14;996.00;;;5.63;38.86
45071;BME280;30836;48.906;9.140;2024-01-11T00:10:15;996.00;;;5.63;38.79
45071;BME280;30836;48.906;9.140;2024-01-11T00:11:15;996.02;;;5.64;38.77
45071;BME280;30836;48.906;9.140;2024-01-11T00:12:16;996.02;;;5.64;38.69
45071;BME280;30836;48.906;9.140;2024-01-11T00:13:16;996.02;;;5.64;38.58
45071;BME280;30836;48.906;9.140;2024-01-11T00:14:17;996.06;;;5.64;38.46
45071;BME280;30836;48.906;9.140;2024-01-11T00:15:17;996.06;;;5.63;38.39
45071;BME280;30836;48.906;9.140;2024-01-11T00:16:18;996.08;;;5.62;38.40
45071;BME280;30836;48.906;9.140;2024-01-11T00:17:18;996.08;;;5.60;38.54
45071;BME280;30836;48.906;9.140;2024-01-11T00:18:18;996.11;;;5.58;38.60
45071;BME280;30836;48.906;9.140;2024-01-11T00:19:19;996.06;;;5.56;38.66
45071;BME280;30836;48.906;9.140;2024-01-11T00:20:19;996.06;;;5.55;38.72
45071;BME280;30836;48.906;9.140;2024-01-11T00:21:20;996.04;;;5.55;38.75
45071;BME280;30836;48.906;9.140;2024-01-11T00:22:20;996.04;;;5.55;38.77
45071;BME280;30836;48.906;9.140;2024-01-11T00:23:20;996.08;;;5.56;38.73
45071;BME280;30836;48.906;9.140;2024-01-11T00:24:21;996.04;;;5.57;38.74
45071;BME280;30836;48.906;9.140;2024-01-11T00:25:21;996.06;;;5.57;38.73
45071;BME280;30836;48.906;9.140;2024-01-11T00:26:22;996.00;;;5.56;38.88
45071;BME280;30836;48.906;9.140;2024-01-11T00:27:22;996.02;;;5.54;38.96
45071;BME280;30836;48.906;9.140;2024-01-11T00:28:23;996.04;;;5.52;38.95
45071;BME280;30836;48.906;9.140;2024-01-11T00:29:23;996.04;;;5.50;39.00
45071;BME280;30836;48.906;9.140;2024-01-11T00:30:23;996.04;;;5.49;39.03
45071;BME280;30836;48.906;9.140;2024-01-11T00:31:24;996.04;;;5.48;39.12
45071;BME280;30836;48.906;9.140;2024-01-11T00:32:24;996.06;;;5.47;39.13
45071;BME280;30836;48.906;9.140;2024-01-11T00:33:25;996.08;;;5.47;39.14
45071;BME280;30836;48.906;9.140;2024-01-11T00:34:25;996.09;;;5.47;39.11
45071;BME280;30836;48.906;9.140;2024-01-11T00:35:25;996.09;;;5.47;39.10
45071;BME280;30836;48.906;9.140;2024-01-11T00:36:26;996.09;;;5.46;39.10
45071;BME280;30836;48.906;9.140;2024-01-11T00:37:26;996.13;;;5.46;39.13
45071;BME280;30836;48.906;9.140;2024-01-11T00:38:27;996.13;;;5.46;39.11
45071;BME280;30836;48.906;9.140;2024-01-11T00:39:27;996.09;;;5.47;39.04
45071;BME280;30836;48.906;9.140;2024-01-11T00:40:28;996.11;;;5.47;39.03
45071;BME280;30836;48.906;9.140;2024-01-11T00:41:28;996.09;;;5.48;39.02
45071;BME280;30836;48.906;9.140;2024-01-11T00:42:29;996.09;;;5.47;39.06
45071;BME280;30836;48.906;9.140;2024-01-11T00:43:29;996.11;;;5.47;39.07
45071;BME280;30836;48.906;9.140;2024-01-11T00:44:29;996.09;;;5.47;39.07
45071;BME280;30836;48.906;9.140;2024-01-11T00:45:30;996.11;;;5.46;39.13
45071;BME280;30836;48.906;9.140;2024-01-11T00:46:30;996.11;;;5.44;39.17
45071;BME280;30836;48.906;9.140;2024-01-11T00:47:31;996.08;;;5.43;39.17
45071;BME280;30836;48.906;9.140;2024-01-11T00:48:31;996.11;;;5.43;39.17
45071;BME280;30836;48.906;9.140;2024-01-11T00:49:31;996.11;;;5.42;39.19
45071;BME280;30836;48.906;9.140;2024-01-11T00:50:32;996.09;;;5.41;39.21
45071;BME280;30836;48.906;9.140;2024-01-11T00:51:32;996.09;;;5.42;39.13
45071;BME280;30836;48.906;9.140;2024-01-11T00:52:33;996.08;;;5.43;39.08
45071;BME280;30836;48.906;9.140;2024-01-11T00:53:33;996.09;;;5.43;39.06
45071;BME280;30836;48.906;9.140;2024-01-11T00:54:34;996.11;;;5.44;39.00
45071;BME280;30836;48.906;9.140;2024-01-11T00:55:34;996.09;;;5.44;39.01
45071;BME280;30836;48.906;9.140;2024-01-11T00:56:35;996.11;;;5.43;39.07
45071;BME280;30836;48.906;9.140;2024-01-11T00:57:35;996.11;;;5.41;39.10
45071;BME280;30836;48.906;9.140;2024-01-11T00:58:35;996.11;;;5.40;39.09
45071;BME280;30836;48.906;9.140;2024-01-11T00:59:36;996.17;;;5.39;39.12
45071;BME280;30836;48.906;9.140;2024-01-11T01:00:36;996.17;;;5.37;39.10
45071;BME280;30836;48.906;9.140;2024-01-11T01:01:37;996.19;;;5.35;39.17
45071;BME280;30836;48.906;9.140;2024-01-11T01:02:37;996.23;;;5.33;39.25
45071;BME280;30836;48.906;9.140;2024-01-11T01:03:38;996.23;;;5.32;39.28
45071;BME280;30836;48.906;9.140;2024-01-11T01:04:39;996.23;;;5.32;39.25
45071;BME280;30836;48.906;9.140;2024-01-11T01:05:39;996.25;;;5.32;39.24
45071;BME280;30836;48.906;9.140;2024-01-11T01:06:40;996.21;;;5.33;39.24
45071;BME280;30836;48.906;9.140;2024-01-11T01:07:41;996.23;;;5.34;39.19
45071;BME280;30836;48.906;9.140;2024-01-11T01:08:41;996.21;;;5.35;39.13
45071;BME280;30836;48.906;9.140;2024-01-11T01:09:42;996.17;;;5.36;39.13
45071;BME280;30836;48.906;9.140;2024-01-11T01:10:42;996.15;;;5.37;39.07
45071;BME280;30836;48.906;9.140;2024-01-11T01:11:43;996.17;;;5.38;39.06
45071;BME280;30836;48.906;9.140;2024-01-11T01:12:43;996.17;;;5.37;39.13
45071;BME280;30836;48.906;9.140;2024-01-11T01:13:43;996.17;;;5.36;39.16
45071;BME280;30836;48.906;9.140;2024-01-11T01:14:44;996.17;;;5.35;39.16
45071;BME280;30836;48.906;9.140;2024-01-11T01:15:44;996.15;;;5.36;39.15
45071;BME280;30836;48.906;9.140;2024-01-11T01:16:45;996.15;;;5.37;39.07
45071;BME280;30836;48.906;9.140;2024-01-11T01:17:45;996.13;;;5.37;38.99
45071;BME280;30836;48.906;9.140;2024-01-11T01:18:46;996.11;;;5.37;38.94
45071;BME280;30836;48.906;9.140;2024-01-11T01:19:46;996.11;;;5.36;38.94
45071;BME280;30836;48.906;9.140;2024-01-11T01:20:46;996.13;;;5.34;38.89
45071;BME280;30836;48.906;9.140;2024-01-11T01:21:47;996.15;;;5.33;38.84
45071;BME280;30836;48.906;9.140;2024-01-11T01:22:47;996.13;;;5.32;38.82
45071;BME280;30836;48.906;9.140;2024-01-11T01:23:48;996.17;;;5.32;38.82
45071;BME280;30836;48.906;9.140;2024-01-11T01:24:48;996.17;;;5.29;38.69
45071;BME280;30836;48.906;9.140;2024-01-11T01:25:49;996.19;;;5.26;38.74
45071;BME280;30836;48.906;9.140;2024-01-11T01:26:49;996.21;;;5.24;38.68
45071;BME280;30836;48.906;9.140;2024-01-11T01:27:49;996.23;;;5.23;38.64
45071;BME280;30836;48.906;9.140;2024-01-11T01:28:50;996.25;;;5.22;38.66
45071;BME280;30836;48.906;9.140;2024-01-11T01:29:50;996.25;;;5.21;38.70
45071;BME280;30836;48.906;9.140;2024-01-11T01:30:51;996.25;;;5.18;38.73
45071;BME280;30836;48.906;9.140;2024-01-11T01:31:52;996.27;;;5.13;38.83
45071;BME280;30836;48.906;9.140;2024-01-11T01:32:52;996.23;;;5.04;39.01
45071;BME280;30836;48.906;9.140;2024-01-11T01:33:53;996.25;;;4.94;39.20
45071;BME280;30836;48.906;9.140;2024-01-11T01:34:53;996.27;;;4.84;39.39
45071;BME280;30836;48.906;9.140;2024-01-11T01:35:54;996.27;;;4.75;39.39
45071;BME280;30836;48.906;9.140;2024-01-11T01:36:54;996.29;;;4.66;39.43
45071;BME280;30836;48.906;9.140;2024-01-11T01:37:55;996.31;;;4.58;39.50
45071;BME280;30836;48.906;9.140;2024-01-11T01:38:55;996.31;;;4.51;39.62
45071;BME280;30836;48.906;9.140;2024-01-11T01:39:56;996.33;;;4.46;39.63
45071;BME280;30836;48.906;9.140;2024-01-11T01:40:56;996.35;;;4.42;39.64
45071;BME280;30836;48.906;9.140;2024-01-11T01:41:57;996.33;;;4.39;39.62
45071;BME280;30836;48.906;9.140;2024-01-11T01:42:57;996.35;;;4.36;39.69
45071;BME280;30836;48.906;9.140;2024-01-11T01:43:58;996.39;;;4.32;39.76
45071;BME280;30836;48.906;9.140;2024-01-11T01:44:59;996.41;;;4.28;39.87
45071;BME280;30836;48.906;9.140;2024-01-11T01:45:59;996.41;;;4.24;39.99
45071;BME280;30836;48.906;9.140;2024-01-11T01:47:00;996.41;;;4.20;40.12
45071;BME280;30836;48.906;9.140;2024-01-11T01:48:03;996.43;;;4.17;40.23
45071;BME280;30836;48.906;9.140;2024-01-11T01:49:04;996.43;;;4.17;40.15
45071;BME280;30836;48.906;9.140;2024-01-11T01:50:05;996.43;;;4.16;40.25
45071;BME280;30836;48.906;9.140;2024-01-11T01:51:06;996.45;;;4.16;40.23
45071;BME280;30836;48.906;9.140;2024-01-11T01:52:07;996.43;;;4.20;40.02
45071;BME280;30836;48.906;9.140;2024-01-11T01:53:07;996.47;;;4.29;39.80
45071;BME280;30836;48.906;9.140;2024-01-11T01:54:08;996.47;;;4.39;39.66
45071;BME280;30836;48.906;9.140;2024-01-11T01:55:09;996.45;;;4.47;39.56
45071;BME280;30836;48.906;9.140;2024-01-11T01:56:10;996.47;;;4.54;39.46
45071;BME280;30836;48.906;9.140;2024-01-11T01:57:11;996.45;;;4.60;39.33
45071;BME280;30836;48.906;9.140;2024-01-11T01:58:12;996.47;;;4.64;39.28
45071;BME280;30836;48.906;9.140;2024-01-11T01:59:13;996.47;;;4.68;39.21
45071;BME280;30836;48.906;9.140;2024-01-11T02:00:15;996.49;;;4.71;39.17
45071;BME280;30836;48.906;9.140;2024-01-11T02:01:16;996.49;;;4.74;39.29
45071;BME280;30836;48.906;9.140;2024-01-11T02:02:21;996.49;;;4.75;39.34
45071;BME280;30836;48.906;9.140;2024-01-11T02:03:22;996.53;;;4.77;39.47
45071;BME280;30836;48.906;9.140;2024-01-11T02:04:24;996.53;;;4.79;39.45
45071;BME280;30836;48.906;9.140;2024-01-11T02:05:25;996.51;;;4.81;39.45
45071;BME280;30836;48.906;9.140;2024-01-11T02:06:25;996.51;;;4.83;39.42
45071;BME280;30836;48.906;9.140;2024-01-11T02:07:29;996.49;;;4.85;39.32
45071;BME280;30836;48.906;9.140;2024-01-11T02:08:29;996.49;;;4.88;39.19
45071;BME280;30836;48.906;9.140;2024-01-11T02:09:31;996.51;;;4.89;39.10
45071;BME280;30836;48.906;9.140;2024-01-11T02:10:32;996.51;;;4.88;39.16
45071;BME280;30836;48.906;9.140;2024-01-11T02:11:33;996.51;;;4.88;39.19
45071;BME280;30836;48.906;9.140;2024-01-11T02:12:35;996.51;;;4.88;39.24
45071;BME280;30836;48.906;9.140;2024-01-11T02:13:36;996.53;;;4.89;39.27
45071;BME280;30836;48.906;9.140;2024-01-11T02:14:37;996.51;;;4.90;39.32
45071;BME280;30836;48.906;9.140;2024-01-11T02:15:38;996.55;;;4.91;39.32
45071;BME280;30836;48.906;9.140;2024-01-11T02:16:38;996.55;;;4.92;39.37
45071;BME280;30836;48.906;9.140;2024-01-11T02:17:39;996.55;;;4.93;39.38
45071;BME280;30836;48.906;9.140;2024-01-11T02:18:40;996.53;;;4.94;39.41
45071;BME280;30836;48.906;9.140;2024-01-11T02:19:41;996.55;;;4.95;39.43
45071;BME280;30836;48.906;9.140;2024-01-11T02:20:41;996.55;;;4.95;39.43
45071;BME280;30836;48.906;9.140;2024-01-11T02:21:42;996.55;;;4.96;39.40
45071;BME280;30836;48.906;9.140;2024-01-11T02:22:45;996.55;;;4.97;39.32
45071;BME280;30836;48.906;9.140;2024-01-11T02:24:59;996.55;;;5.00;39.24
45071;BME280;30836;48.906;9.140;2024-01-11T02:25:59;996.53;;;5.01;39.27
45071;BME280;30836;48.906;9.140;2024-01-11T02:27:00;996.53;;;5.00;39.29
45071;BME280;30836;48.906;9.140;2024-01-11T02:28:04;996.55;;;5.00;39.32
45071;BME280;30836;48.906;9.140;2024-01-11T02:29:05;996.55;;;4.98;39.38
45071;BME280;30836;48.906;9.140;2024-01-11T02:30:05;996.53;;;4.97;39.42
45071;BME280;30836;48.906;9.140;2024-01-11T02:31:06;996.55;;;4.98;39.38
45071;BME280;30836;48.906;9.140;2024-01-11T02:32:07;996.57;;;4.99;39.38
45071;BME280;30836;48.906;9.140;2024-01-11T02:33:07;996.59;;;4.98;39.38
45071;BME280;30836;48.906;9.140;2024-01-11T02:34:08;996.60;;;4.98;39.40
45071;BME280;30836;48.906;9.140;2024-01-11T02:35:10;996.59;;;4.98;39.39
45071;BME280;30836;48.906;9.140;2024-01-11T02:36:10;996.59;;;4.98;39.37
45071;BME280;30836;48.906;9.140;2024-01-11T02:37:12;996.59;;;4.97;39.06
45071;BME280;30836;48.906;9.140;2024-01-11T02:38:13;996.60;;;4.94;38.96
45071;BME280;30836;48.906;9.140;2024-01-11T02:39:14;996.62;;;4.92;39.00
45071;BME280;30836;48.906;9.140;2024-01-11T02:40:17;996.64;;;4.91;39.00
45071;BME280;30836;48.906;9.140;2024-01-11T02:41:19;996.64;;;4.91;39.05
45071;BME280;30836;48.906;9.140;2024-01-11T02:41:30;996.59;;;4.89;39.04
45071;BME280;30836;48.906;9.140;2024-01-11T02:42:32;996.59;;;4.90;39.12
45071;BME280;30836;48.906;9.140;2024-01-11T02:43:33;996.57;;;4.87;39.22
45071;BME280;30836;48.906;9.140;2024-01-11T02:44:34;996.57;;;4.77;39.54
45071;BME280;30836;48.906;9.140;2024-01-11T02:45:34;996.57;;;4.63;39.87
45071;BME280;30836;48.906;9.140;2024-01-11T02:46:35;996.53;;;4.50;40.14
45071;BME280;30836;48.906;9.140;2024-01-11T02:47:35;996.51;;;4.37;40.36
45071;BME280;30836;48.906;9.140;2024-01-11T02:48:36;996.51;;;4.27;40.51
45071;BME280;30836;48.906;9.140;2024-01-11T02:49:36;996.53;;;4.18;40.67
45071;BME280;30836;48.906;9.140;2024-01-11T02:50:36;996.51;;;4.11;40.81
45071;BME280;30836;48.906;9.140;2024-01-11T02:51:37;996.51;;;4.05;40.96
45071;BME280;30836;48.906;9.140;2024-01-11T02:52:37;996.47;;;4.02;40.96
45071;BME280;30836;48.906;9.140;2024-01-11T02:53:38;996.49;;;4.00;40.94
45071;BME280;30836;48.906;9.140;2024-01-11T02:54:38;996.45;;;3.98;41.00
45071;BME280;30836;48.906;9.140;2024-01-11T02:55:38;996.43;;;3.96;41.07
45071;BME280;30836;48.906;9.140;2024-01-11T02:56:39;996.43;;;3.95;41.14
45071;BME280;30836;48.906;9.140;2024-01-11T02:57:39;996.43;;;3.93;41.23
45071;BME280;30836;48.906;9.140;2024-01-11T02:58:40;996.43;;;3.90;41.35
45071;BME280;30836;48.906;9.140;2024-01-11T02:59:40;996.41;;;3.87;41.60
45071;BME280;30836;48.906;9.140;2024-01-11T03:00:44;996.41;;;3.82;41.84
45071;BME280;30836;48.906;9.140;2024-01-11T03:01:44;996.41;;;3.78;41.84
45071;BME280;30836;48.906;9.140;2024-01-11T03:02:45;996.39;;;3.76;41.79
45071;BME280;30836;48.906;9.140;2024-01-11T03:03:45;996.41;;;3.76;41.78
45071;BME280;30836;48.906;9.140;2024-01-11T03:04:46;996.39;;;3.75;41.91
45071;BME280;30836;48.906;9.140;2024-01-11T03:05:46;996.39;;;3.74;41.88
45071;BME280;30836;48.906;9.140;2024-01-11T03:06:46;996.41;;;3.75;41.79
45071;BME280;30836;48.906;9.140;2024-01-11T03:07:47;996.43;;;3.76;41.78
45071;BME280;30836;48.906;9.140;2024-01-11T03:08:48;996.41;;;3.77;41.76
45071;BME280;30836;48.906;9.140;2024-01-11T03:09:49;996.41;;;3.77;41.77
45071;BME280;30836;48.906;9.140;2024-01-11T03:10:49;996.41;;;3.75;41.86
45071;BME280;30836;48.906;9.140;2024-01-11T03:11:49;996.41;;;3.74;41.90
45071;BME280;30836;48.906;9.140;2024-01-11T03:12:50;996.41;;;3.75;41.88
45071;BME280;30836;48.906;9.140;2024-01-11T03:13:50;996.39;;;3.77;41.87
45071;BME280;30836;48.906;9.140;2024-01-11T03:14:51;996.39;;;3.78;41.78
45071;BME280;30836;48.906;9.140;2024-01-11T03:15:51;996.41;;;3.81;41.72
45071;BME280;30836;48.906;9.140;2024-01-11T03:16:52;996.39;;;3.83;41.72
45071;BME280;30836;48.906;9.140;2024-01-11T03:17:52;996.39;;;3.83;41.76
45071;BME280;30836;48.906;9.140;2024-01-11T03:18:53;996.37;;;3.82;41.84
45071;BME280;30836;48.906;9.140;2024-01-11T03:19:53;996.35;;;3.81;41.86
45071;BME280;30836;48.906;9.140;2024-01-11T03:20:54;996.37;;;3.79;41.91
45071;BME280;30836;48.906;9.140;2024-01-11T03:21:54;996.35;;;3.78;42.00
45071;BME280;30836;48.906;9.140;2024-01-11T03:22:54;996.33;;;3.77;42.01
45071;BME280;30836;48.906;9.140;2024-01-11T03:23:55;996.35;;;3.76;41.97
45071;BME280;30836;48.906;9.140;2024-01-11T03:24:55;996.33;;;3.77;42.01
45071;BME280;30836;48.906;9.140;2024-01-11T03:25:56;996.33;;;3.77;42.03
45071;BME280;30836;48.906;9.140;2024-01-11T03:26:56;996.35;;;3.77;42.03
45071;BME280;30836;48.906;9.140;2024-01-11T03:27:59;996.37;;;3.77;42.07
45071;BME280;30836;48.906;9.140;2024-01-11T03:29:00;996.37;;;3.77;42.05
45071;BME280;30836;48.906;9.140;2024-01-11T03:30:00;996.35;;;3.76;42.04
45071;BME280;30836;48.906;9.140;2024-01-11T03:31:01;996.35;;;3.76;42.03
45071;BME280;30836;48.906;9.140;2024-01-11T03:32:01;996.35;;;3.75;42.04
45071;BME280;30836;48.906;9.140;2024-01-11T03:33:02;996.33;;;3.74;41.98
45071;BME280;30836;48.906;9.140;2024-01-11T03:34:03;996.29;;;3.72;42.04
45071;BME280;30836;48.906;9.140;2024-01-11T03:35:03;996.29;;;3.68;42.19
45071;BME280;30836;48.906;9.140;2024-01-11T03:37:10;996.29;;;3.62;42.17
45071;BME280;30836;48.906;9.140;2024-01-11T03:38:10;996.27;;;3.60;42.28
45071;BME280;30836;48.906;9.140;2024-01-11T03:39:10;996.29;;;3.57;42.43
45071;BME280;30836;48.906;9.140;2024-01-11T03:40:11;996.31;;;3.53;42.71
45071;BME280;30836;48.906;9.140;2024-01-11T03:41:12;996.33;;;3.49;43.00
45071;BME280;30836;48.906;9.140;2024-01-11T03:42:12;996.31;;;3.46;43.03
45071;BME280;30836;48.906;9.140;2024-01-11T03:43:12;996.33;;;3.44;43.07
45071;BME280;30836;48.906;9.140;2024-01-11T03:44:16;996.35;;;3.44;43.00
45071;BME280;30836;48.906;9.140;2024-01-11T03:45:17;996.37;;;3.46;42.94
45071;BME280;30836;48.906;9.140;2024-01-11T03:46:18;996.37;;;3.47;42.93
45071;BME280;30836;48.906;9.140;2024-01-11T03:47:18;996.37;;;3.47;42.98
45071;BME280;30836;48.906;9.140;2024-01-11T03:48:19;996.37;;;3.47;43.01
45071;BME280;30836;48.906;9.140;2024-01-11T03:49:19;996.37;;;3.47;42.99
45071;BME280;30836;48.906;9.140;2024-01-11T03:50:20;996.33;;;3.47;42.99
45071;BME280;30836;48.906;9.140;2024-01-11T03:51:20;996.33;;;3.48;42.95
45071;BME280;30836;48.906;9.140;2024-01-11T03:52:21;996.31;;;3.48;42.95
45071;BME280;30836;48.906;9.140;2024-01-11T03:53:21;996.31;;;3.50;42.86
45071;BME280;30836;48.906;9.140;2024-01-11T03:54:22;996.29;;;3.51;42.74
45071;BME280;30836;48.906;9.140;2024-01-11T03:55:22;996.29;;;3.50;42.77
45071;BME280;30836;48.906;9.140;2024-01-11T03:56:22;996.29;;;3.47;42.87
45071;BME280;30836;48.906;9.140;2024-01-11T03:57:23;996.29;;;3.44;42.90
45071;BME280;30836;48.906;9.140;2024-01-11T03:58:23;996.27;;;3.41;42.90
45071;BME280;30836;48.906;9.140;2024-01-11T03:59:24;996.27;;;3.39;42.93
45071;BME280;30836;48.906;9.140;2024-01-11T04:00:24;996.27;;;3.38;43.01
45071;BME280;30836;48.906;9.140;2024-01-11T04:01:25;996.25;;;3.37;43.03
45071;BME280;30836;48.906;9.140;2024-01-11T04:02:25;996.27;;;3.37;42.99
45071;BME280;30836;48.906;9.140;2024-01-11T04:03:25;996.23;;;3.37;42.96
45071;BME280;30836;48.906;9.140;2024-01-11T04:04:26;996.25;;;3.36;42.95
45071;BME280;30836;48.906;9.140;2024-01-11T04:05:26;996.21;;;3.37;42.83
45071;BME280;30836;48.906;9.140;2024-01-11T04:06:27;996.21;;;3.38;42.73
45071;BME280;30836;48.906;9.140;2024-01-11T04:07:27;996.23;;;3.39;42.71
45071;BME280;30836;48.906;9.140;2024-01-11T04:08:27;996.27;;;3.39;42.61
45071;BME280;30836;48.906;9.140;2024-01-11T04:09:28;996.27;;;3.37;42.64
45071;BME280;30836;48.906;9.140;2024-01-11T04:10:28;996.27;;;3.36;42.70
45071;BME280;30836;48.906;9.140;2024-01-11T04:11:29;996.27;;;3.34;42.78
45071;BME280;30836;48.906;9.140;2024-01-11T04:12:29;996.25;;;3.31;42.83
45071;BME280;30836;48.906;9.140;2024-01-11T04:13:30;996.29;;;3.28;42.90
45071;BME280;30836;48.906;9.140;2024-01-11T04:14:30;996.29;;;3.26;43.00
45071;BME280;30836;48.906;9.140;2024-01-11T04:15:31;996.27;;;3.22;43.19
45071;BME280;30836;48.906;9.140;2024-01-11T04:16:31;996.31;;;3.18;43.33
45071;BME280;30836;48.906;9.140;2024-01-11T04:17:32;996.31;;;3.14;43.40
45071;BME280;30836;48.906;9.140;2024-01-11T04:18:32;996.31;;;3.12;43.46
45071;BME280;30836;48.906;9.140;2024-01-11T04:19:33;996.31;;;3.11;43.48
45071;BME280;30836;48.906;9.140;2024-01-11T04:20:33;996.29;;;3.11;43.50
45071;BME280;30836;48.906;9.140;2024-01-11T04:21:34;996.29;;;3.12;43.47
45071;BME280;30836;48.906;9.140;2024-01-11T04:22:34;996.29;;;3.14;43.47
45071;BME280;30836;48.906;9.140;2024-01-11T04:23:35;996.29;;;3.16;43.44
45071;BME280;30836;48.906;9.140;2024-01-11T04:24:35;996.27;;;3.18;43.39
45071;BME280;30836;48.906;9.140;2024-01-11T04:25:36;996.27;;;3.21;43.33
45071;BME280;30836;48.906;9.140;2024-01-11T04:26:36;996.25;;;3.25;43.19
45071;BME280;30836;48.906;9.140;2024-01-11T04:27:37;996.25;;;3.29;43.12
45071;BME280;30836;48.906;9.140;2024-01-11T04:28:37;996.25;;;3.32;43.08
45071;BME280;30836;48.906;9.140;2024-01-11T04:29:37;996.23;;;3.35;43.04
45071;BME280;30836;48.906;9.140;2024-01-11T04:30:38;996.21;;;3.37;42.97
45071;BME280;30836;48.906;9.140;2024-01-11T04:31:38;996.23;;;3.40;42.88
45071;BME280;30836;48.906;9.140;2024-01-11T04:32:39;996.23;;;3.42;42.80
45071;BME280;30836;48.906;9.140;2024-01-11T04:33:43;996.21;;;3.44;42.78
45071;BME280;30836;48.906;9.140;2024-01-11T04:34:43;996.19;;;3.45;42.76
45071;BME280;30836;48.906;9.140;2024-01-11T04:35:44;996.21;;;3.47;42.70
45071;BME280;30836;48.906;9.140;2024-01-11T04:36:44;996.21;;;3.48;42.70
45071;BME280;30836;48.906;9.140;2024-01-11T04:37:45;996.21;;;3.48;42.66
45071;BME280;30836;48.906;9.140;2024-01-11T04:38:45;996.21;;;3.48;42.66
45071;BME280;30836;48.906;9.140;2024-01-11T04:39:46;996.21;;;3.49;42.65
45071;BME280;30836;48.906;9.140;2024-01-11T04:40:46;996.21;;;3.50;42.60
45071;BME280;30836;48.906;9.140;2024-01-11T04:41:46;996.21;;;3.50;42.48
45071;BME280;30836;48.906;9.140;2024-01-11T04:42:47;996.19;;;3.51;42.33
45071;BME280;30836;48.906;9.140;2024-01-11T04:43:47;996.19;;;3.51;42.22
45071;BME280;30836;48.906;9.140;2024-01-11T04:44:48;996.23;;;3.49;42.16
45071;BME280;30836;48.906;9.140;2024-01-11T04:45:48;996.21;;;3.46;42.20
45071;BME280;30836;48.906;9.140;2024-01-11T04:46:48;996.23;;;3.43;42.15
45071;BME280;30836;48.906;9.140;2024-01-11T04:47:52;996.23;;;3.40;42.08
45071;BME280;30836;48.906;9.140;2024-01-11T04:48:52;996.25;;;3.38;41.98
45071;BME280;30836;48.906;9.140;2024-01-11T04:49:54;996.23;;;3.35;41.93
45071;BME280;30836;48.906;9.140;2024-01-11T04:50:55;996.25;;;3.32;41.95
45071;BME280;30836;48.906;9.140;2024-01-11T04:51:55;996.31;;;3.31;41.87
45071;BME280;30836;48.906;9.140;2024-01-11T04:52:56;996.31;;;3.29;41.65
45071;BME280;30836;48.906;9.140;2024-01-11T04:53:56;996.31;;;3.28;41.63
45071;BME280;30836;48.906;9.140;2024-01-11T04:54:56;996.31;;;3.27;41.61
45071;BME280;30836;48.906;9.140;2024-01-11T04:55:57;996.31;;;3.26;41.58
45071;BME280;30836;48.906;9.140;2024-01-11T04:56:57;996.31;;;3.26;41.44
45071;BME280;30836;48.906;9.140;2024-01-11T04:57:58;996.31;;;3.25;41.31
45071;BME280;30836;48.906;9.140;2024-01-11T04:58:58;996.31;;;3.24;41.26
45071;BME280;30836;48.906;9.140;2024-01-11T04:59:58;996.29;;;3.24;41.23
45071;BME280;30836;48.906;9.140;2024-01-11T05:00:59;996.29;;;3.23;41.20
45071;BME280;30836;48.906;9.140;2024-01-11T05:02:00;996.23;;;3.21;41.05
45071;BME280;30836;48.906;9.140;2024-01-11T05:03:00;996.25;;;3.19;41.08
45071;BME280;30836;48.906;9.140;2024-01-11T05:04:01;996.25;;;3.18;41.11
45071;BME280;30836;48.906;9.140;2024-01-11T05:05:01;996.25;;;3.16;41.28
45071;BME280;30836;48.906;9.140;2024-01-11T05:06:02;996.27;;;3.13;41.60
45071;BME280;30836;48.906;9.140;2024-01-11T05:07:02;996.27;;;3.11;41.95
45071;BME280;30836;48.906;9.140;2024-01-11T05:08:03;996.27;;;3.08;42.18
45071;BME280;30836;48.906;9.140;2024-01-11T05:09:04;996.29;;;3.06;42.31
45071;BME280;30836;48.906;9.140;2024-01-11T05:10:04;996.29;;;3.06;42.35
45071;BME280;30836;48.906;9.140;2024-01-11T05:11:05;996.33;;;3.07;42.29
45071;BME280;30836;48.906;9.140;2024-01-11T05:12:06;996.35;;;3.08;42.24
45071;BME280;30836;48.906;9.140;2024-01-11T05:13:06;996.35;;;3.08;42.21
45071;BME280;30836;48.906;9.140;2024-01-11T05:14:07;996.37;;;3.08;42.14
45071;BME280;30836;48.906;9.140;2024-01-11T05:15:07;996.39;;;3.08;42.07
45071;BME280;30836;48.906;9.140;2024-01-11T05:16:16;996.39;;;3.08;42.03
45071;BME280;30836;48.906;9.140;2024-01-11T05:17:19;996.39;;;3.08;41.99
45071;BME280;30836;48.906;9.140;2024-01-11T05:18:19;996.41;;;3.08;41.97
45071;BME280;30836;48.906;9.140;2024-01-11T05:19:19;996.39;;;3.08;41.92
45071;BME280;30836;48.906;9.140;2024-01-11T05:20:20;996.39;;;3.07;41.92
45071;BME280;30836;48.906;9.140;2024-01-11T05:21:20;996.39;;;3.06;41.97
45071;BME280;30836;48.906;9.140;2024-01-11T05:22:21;996.37;;;3.06;42.00
45071;BME280;30836;48.906;9.140;2024-01-11T05:23:22;996.39;;;3.05;42.01
45071;BME280;30836;48.906;9.140;2024-01-11T05:24:22;996.41;;;3.05;42.08
45071;BME280;30836;48.906;9.140;2024-01-11T05:25:23;996.43;;;3.05;42.13
45071;BME280;30836;48.906;9.140;2024-01-11T05:26:23;996.45;;;3.06;42.11
45071;BME280;30836;48.906;9.140;2024-01-11T05:27:23;996.45;;;3.05;42.00
45071;BME280;30836;48.906;9.140;2024-01-11T05:28:24;996.47;;;3.04;42.00
45071;BME280;30836;48.906;9.140;2024-01-11T05:29:24;996.49;;;3.04;41.96
45071;BME280;30836;48.906;9.140;2024-01-11T05:30:25;996.49;;;3.04;41.94
45071;BME280;30836;48.906;9.140;2024-01-11T05:31:25;996.55;;;3.03;41.92
45071;BME280;30836;48.906;9.140;2024-01-11T05:32:25;996.57;;;3.04;41.90
45071;BME280;30836;48.906;9.140;2024-01-11T05:33:26;996.59;;;3.04;41.90
45071;BME280;30836;48.906;9.140;2024-01-11T05:34:26;996.60;;;3.05;41.90
45071;BME280;30836;48.906;9.140;2024-01-11T05:35:27;996.59;;;3.06;41.93